Time;durP1;ratioP1;P1;durP2;ratioP2;P2;SDS_P1;SDS_P2;PMS_P1;PMS_P2;Temp;Humidity;BMP_temperature;BMP_pressure;BME280_temperature;BME280_humidity;BME280_pressure;Samples;Min_cycle;Max_cycle;Signal;HPM_P1;HPM_P2
2022/03/23 00:02:26;;;;;;;29.45;8.20;;;;;;;1.20;86.93;99650.22;5066489;28;20063;-68
2022/03/23 00:04:54;;;;;;;14.13;6.07;;;;;;;1.15;87.46;99650.91;5066451;28;20043;-67
2022/03/23 00:07:20;;;;;;;16.48;6.78;;;;;;;1.10;87.52;99650.75;5071179;28;20273;-67
2022/03/23 00:09:46;;;;;;;11.50;6.55;;;;;;;1.14;87.51;99654.34;5086078;28;20028;-67
2022/03/23 00:12:11;;;;;;;15.73;6.38;;;;;;;1.13;87.14;99652.53;5077186;28;20032;-67
2022/03/23 00:14:37;;;;;;;14.60;7.40;;;;;;;1.10;88.12;99652.44;5071851;28;20325;-67
2022/03/23 00:17:04;;;;;;;12.15;6.22;;;;;;;1.24;87.21;99652.06;5066516;28;20025;-67
2022/03/23 00:19:29;;;;;;;14.27;7.07;;;;;;;1.04;86.94;99652.25;5067368;28;20016;-67
2022/03/23 00:21:55;;;;;;;16.52;7.22;;;;;;;0.99;88.21;99654.69;5067381;28;20028;-67
2022/03/23 00:24:20;;;;;;;13.95;7.10;;;;;;;1.02;88.02;99648.72;5067198;28;20044;-67
2022/03/23 00:26:45;;;;;;;11.70;6.72;;;;;;;1.00;88.80;99651.25;5085104;28;20346;-67
2022/03/23 00:29:11;;;;;;;12.55;7.32;;;;;;;1.00;88.77;99650.38;5085208;28;20023;-67
2022/03/23 00:31:37;;;;;;;13.98;6.38;;;;;;;0.86;88.15;99649.91;5085451;28;20254;-67
2022/03/23 00:34:02;;;;;;;14.45;6.65;;;;;;;0.83;88.58;99651.50;5085167;28;20046;-67
2022/03/23 00:36:28;;;;;;;13.85;7.00;;;;;;;0.84;88.57;99653.25;5085360;28;20087;-67
2022/03/23 00:38:53;;;;;;;19.25;7.47;;;;;;;0.82;89.29;99649.75;5085046;28;20107;-67
2022/03/23 00:41:19;;;;;;;11.73;5.93;;;;;;;0.91;88.38;99650.06;5070572;28;20043;-67
2022/03/23 00:43:45;;;;;;;12.65;7.38;;;;;;;0.78;88.22;99643.56;5066774;28;20044;-67
2022/03/23 00:46:11;;;;;;;27.52;7.55;;;;;;;0.71;88.04;99645.91;5072810;28;20235;-67
2022/03/23 00:48:36;;;;;;;22.27;7.30;;;;;;;0.62;88.79;99651.63;5081811;28;20247;-67
2022/03/23 00:51:02;;;;;;;18.58;7.82;;;;;;;0.64;89.11;99654.28;5070289;28;20032;-67
2022/03/23 00:53:27;;;;;;;17.90;7.35;;;;;;;0.76;88.75;99652.13;5083403;28;20308;-67
2022/03/23 00:55:53;;;;;;;21.23;6.40;;;;;;;0.74;88.73;99653.78;5083609;28;20028;-67
2022/03/23 00:58:18;;;;;;;13.43;7.22;;;;;;;0.82;87.83;99655.81;5075119;28;20025;-67
2022/03/23 01:00:45;;;;;;;13.88;7.95;;;;;;;0.69;87.77;99657.94;5065379;28;20020;-67
2022/03/23 01:03:11;;;;;;;15.15;7.45;;;;;;;0.67;88.16;99649.22;5081268;28;20028;-67
2022/03/23 01:05:36;;;;;;;13.00;6.95;;;;;;;0.72;88.04;99655.41;5067566;28;20047;-67
2022/03/23 01:08:03;;;;;;;15.18;7.57;;;;;;;0.68;88.71;99650.97;5082578;28;20316;-67
2022/03/23 01:10:29;;;;;;;15.10;6.63;;;;;;;0.64;88.36;99649.09;5074874;28;20012;-67
2022/03/23 01:12:55;;;;;;;12.30;6.10;;;;;;;0.61;88.72;99656.75;5084359;28;20201;-67
2022/03/23 01:15:21;;;;;;;15.73;6.20;;;;;;;0.59;89.03;99650.63;5077133;28;20078;-67
2022/03/23 01:17:47;;;;;;;18.05;8.55;;;;;;;0.50;89.13;99651.19;5083353;28;20047;-67
2022/03/23 01:20:14;;;;;;;11.50;5.28;;;;;;;0.50;87.97;99655.50;5082577;28;20009;-67
2022/03/23 01:22:41;;;;;;;18.98;6.28;;;;;;;0.40;88.53;99643.03;5083051;28;20013;-67
2022/03/23 01:25:08;;;;;;;14.20;6.18;;;;;;;0.46;89.11;99648.44;5079403;28;20021;-67
2022/03/23 01:27:35;;;;;;;20.90;7.60;;;;;;;0.30;88.56;99647.00;5068181;28;20291;-67
2022/03/23 01:30:02;;;;;;;15.10;6.25;;;;;;;0.25;89.12;99643.34;5084209;28;20027;-67
2022/03/23 01:32:29;;;;;;;13.00;6.85;;;;;;;0.35;89.54;99644.59;5084243;28;20020;-67
2022/03/23 01:34:54;;;;;;;15.35;7.30;;;;;;;0.37;90.10;99642.91;5082527;28;20013;-67
2022/03/23 01:37:20;;;;;;;15.45;7.53;;;;;;;0.39;89.74;99642.16;5084161;28;20122;-67
2022/03/23 01:39:45;;;;;;;18.13;8.23;;;;;;;0.31;88.87;99637.53;5082479;28;20031;-67
2022/03/23 01:42:11;;;;;;;13.65;7.00;;;;;;;0.42;88.79;99638.81;5064627;28;20017;-67
2022/03/23 01:44:36;;;;;;;14.32;7.65;;;;;;;0.32;88.76;99639.28;5081228;28;20020;-67
2022/03/23 01:47:08;;;;;;;18.33;7.25;;;;;;;0.39;88.64;99636.09;5080572;28;20244;-67
2022/03/23 01:49:35;;;;;;;;;;;;;;;0.35;89.03;99629.06;5064866;28;20131;-67
2022/03/23 01:52:02;;;;;;;13.50;7.15;;;;;;;0.32;89.79;99635.00;5073367;28;19936;-67
2022/03/23 01:54:28;;;;;;;11.20;5.82;;;;;;;0.36;89.71;99633.41;5083887;28;20020;-67
2022/03/23 01:56:56;;;;;;;12.18;6.07;;;;;;;0.22;88.81;99632.88;5067462;28;20020;-67
2022/03/23 01:59:21;;;;;;;16.38;7.03;;;;;;;0.17;88.90;99628.38;5064330;28;20023;-67
2022/03/23 02:01:47;;;;;;;14.38;7.80;;;;;;;0.22;89.34;99632.03;5064334;28;20036;-67
2022/03/23 02:04:13;;;;;;;15.20;6.22;;;;;;;0.20;88.87;99631.06;5064278;28;20032;-67
2022/03/23 02:06:38;;;;;;;13.23;6.28;;;;;;;0.14;88.85;99634.31;5064277;28;20058;-67
2022/03/23 02:09:04;;;;;;;12.20;6.45;;;;;;;0.12;89.02;99635.09;5081957;28;20028;-67
2022/03/23 02:11:32;;;;;;;12.55;6.68;;;;;;;-0.06;89.42;99630.97;5075432;28;20020;-67
2022/03/23 02:13:58;;;;;;;15.52;7.90;;;;;;;0.00;89.87;99631.22;5083769;28;20024;-67
2022/03/23 02:16:24;;;;;;;13.63;8.02;;;;;;;0.04;89.62;99633.06;5083436;28;20040;-67
2022/03/23 02:18:49;;;;;;;15.90;8.43;;;;;;;0.09;89.21;99629.81;5074852;28;20225;-67
2022/03/23 02:21:15;;;;;;;14.57;7.50;;;;;;;0.09;89.88;99629.81;5065168;28;20020;-67
2022/03/23 02:23:41;;;;;;;18.88;8.32;;;;;;;0.10;89.72;99628.97;5072101;28;20343;-67
2022/03/23 02:26:08;;;;;;;13.90;6.65;;;;;;;0.16;90.12;99629.19;5076781;28;20075;-67
2022/03/23 02:28:34;;;;;;;19.95;6.63;;;;;;;0.14;89.99;99636.00;5083190;28;20044;-67
2022/03/23 02:31:01;;;;;;;12.75;6.90;;;;;;;0.17;89.81;99628.38;5083611;28;20335;-67
2022/03/23 02:33:26;;;;;;;21.48;6.75;;;;;;;0.17;89.58;99628.38;5083092;28;20020;-67
2022/03/23 02:35:52;;;;;;;10.65;5.65;;;;;;;0.06;89.48;99619.34;5083282;28;20067;-67
2022/03/23 02:38:17;;;;;;;13.57;7.18;;;;;;;0.12;89.24;99624.75;5068791;28;20021;-67
2022/03/23 02:40:44;;;;;;;19.90;8.75;;;;;;;0.11;88.96;99628.13;5080962;28;20021;-67
2022/03/23 02:43:09;;;;;;;12.65;6.45;;;;;;;-0.03;89.04;99620.75;5071037;28;20028;-67
2022/03/23 02:45:35;;;;;;;11.60;6.80;;;;;;;-0.27;88.65;99614.66;5063788;28;20021;-67
2022/03/23 02:48:01;;;;;;;18.85;7.85;;;;;;;-0.32;89.43;99621.34;5064821;28;20323;-67
2022/03/23 02:50:27;;;;;;;15.63;7.68;;;;;;;-0.38;90.60;99615.94;5081015;28;20028;-67
2022/03/23 03:04:15;;;;;;;12.95;7.22;;;;;;;-0.29;89.79;99626.63;5081498;28;20347;-67
2022/03/23 03:06:40;;;;;;;12.18;6.25;;;;;;;-0.37;89.77;99628.06;5082591;28;20020;-67
2022/03/23 03:09:06;;;;;;;12.85;7.57;;;;;;;-0.35;89.93;99631.56;5067037;28;20048;-67
2022/03/23 03:11:31;;;;;;;17.42;7.07;;;;;;;-0.27;89.12;99635.34;5082671;28;20024;-66
2022/03/23 03:13:57;;;;;;;15.02;7.32;;;;;;;-0.20;88.73;99634.75;5080676;28;20088;-66
2022/03/23 03:16:22;;;;;;;13.00;6.47;;;;;;;-0.29;88.42;99636.97;5063319;28;20041;-67
2022/03/23 03:18:48;;;;;;;17.08;7.63;;;;;;;-0.34;88.04;99643.66;5063451;28;20079;-67
2022/03/23 03:21:14;;;;;;;26.05;8.13;;;;;;;-0.39;89.35;99644.31;5076769;28;20065;-67
2022/03/23 03:23:42;;;;;;;28.23;9.40;;;;;;;-0.38;89.46;99646.97;5085322;28;20027;-67
2022/03/23 03:26:09;;;;;;;16.20;6.88;;;;;;;-0.40;89.38;99648.63;5073597;28;20024;-67
2022/03/23 03:28:36;;;;;;;16.50;8.25;;;;;;;-0.34;88.86;99651.44;5083526;28;20088;-67
2022/03/23 03:31:07;;;;;;;21.13;7.55;;;;;;;-0.36;89.15;99650.50;5067065;28;20044;-67
2022/03/23 03:33:33;;;;;;;11.70;6.15;;;;;;;-0.38;89.26;99652.13;5068053;28;20013;-67
2022/03/23 03:35:59;;;;;;;14.50;7.43;;;;;;;-0.32;89.46;99662.72;5076458;28;20087;-67
2022/03/23 03:38:26;;;;;;;21.88;8.25;;;;;;;-0.32;90.08;99657.56;5081032;28;20084;-67
2022/03/23 03:40:51;;;;;;;13.80;6.30;;;;;;;-0.24;89.97;99660.44;5086117;28;20023;-67
2022/03/23 03:43:17;;;;;;;19.70;7.13;;;;;;;-0.27;89.63;99662.91;5084972;28;20016;-67
2022/03/23 03:45:45;;;;;;;16.75;7.82;;;;;;;-0.43;88.72;99658.84;5086548;28;20024;-67
2022/03/23 03:48:10;;;;;;;13.60;7.40;;;;;;;-0.33;89.08;99671.31;5067087;28;20017;-67
2022/03/23 03:50:36;;;;;;;16.10;6.43;;;;;;;-0.31;88.79;99669.66;5078086;28;20078;-67
2022/03/23 03:53:02;;;;;;;15.60;7.35;;;;;;;-0.42;89.08;99670.06;5071461;28;20308;-67
2022/03/23 03:55:27;;;;;;;14.68;6.30;;;;;;;-0.45;88.90;99668.25;5082901;28;20020;-67
2022/03/23 03:57:54;;;;;;;19.63;8.70;;;;;;;-0.42;88.48;99665.78;5085854;28;20024;-67
2022/03/23 04:00:19;;;;;;;14.63;8.25;;;;;;;-0.42;88.08;99678.72;5069936;28;20017;-67
2022/03/23 04:02:45;;;;;;;14.48;7.60;;;;;;;-0.63;88.33;99670.06;5066558;28;20084;-67
2022/03/23 04:05:10;;;;;;;16.92;8.45;;;;;;;-0.69;88.95;99669.81;5068299;28;20016;-67
2022/03/23 04:07:35;;;;;;;15.77;7.38;;;;;;;-0.58;88.16;99673.75;5073477;28;20062;-67
2022/03/23 04:10:05;;;;;;;20.35;7.63;;;;;;;-0.61;88.47;99673.59;5079167;28;20123;-67
2022/03/23 04:12:31;;;;;;;17.13;8.38;;;;;;;-0.62;88.68;99671.84;5066345;28;20017;-67
2022/03/23 04:14:56;;;;;;;16.08;7.97;;;;;;;-0.67;89.72;99673.34;5066209;28;20108;-67
2022/03/23 04:17:21;;;;;;;20.88;7.85;;;;;;;-0.67;89.58;99677.63;5066277;28;20021;-67
2022/03/23 04:19:47;;;;;;;17.77;8.85;;;;;;;-0.64;90.36;99678.66;5066206;28;20312;-67
2022/03/23 04:22:12;;;;;;;18.00;8.02;;;;;;;-0.67;90.42;99673.34;5066193;28;20031;-67
2022/03/23 04:24:38;;;;;;;18.23;8.25;;;;;;;-0.57;90.17;99680.66;5073472;28;20020;-67
2022/03/23 04:27:05;;;;;;;14.48;6.82;;;;;;;-0.69;89.61;99679.28;5084216;28;20016;-67
2022/03/23 04:29:30;;;;;;;22.35;8.32;;;;;;;-0.77;89.46;99686.72;5085477;28;20024;-67
2022/03/23 04:31:56;;;;;;;16.13;7.63;;;;;;;-0.68;89.97;99687.13;5085347;28;20047;-67
2022/03/23 04:34:21;;;;;;;15.07;7.47;;;;;;;-0.69;89.94;99687.06;5071831;28;20012;-67
2022/03/23 04:36:47;;;;;;;18.50;8.85;;;;;;;-0.67;89.17;99685.38;5066073;28;20032;-67
2022/03/23 04:39:12;;;;;;;24.73;8.65;;;;;;;-0.71;89.46;99687.00;5067884;28;20016;-67
2022/03/23 04:41:38;;;;;;;18.33;9.32;;;;;;;-0.77;89.49;99686.72;5065862;28;20024;-67
2022/03/23 04:44:03;;;;;;;21.20;9.52;;;;;;;-0.79;90.58;99693.53;5065795;28;20250;-67
2022/03/23 04:46:29;;;;;;;15.98;7.55;;;;;;;-0.76;91.33;99697.97;5065721;28;20031;-67
2022/03/23 04:48:54;;;;;;;22.95;8.55;;;;;;;-0.74;90.57;99689.44;5066838;28;20020;-67
2022/03/23 04:51:20;;;;;;;17.83;8.27;;;;;;;-0.74;89.65;99692.03;5066719;28;20020;-67
2022/03/23 04:53:45;;;;;;;23.45;10.43;;;;;;;-0.97;89.02;99692.78;5070687;28;20066;-67
2022/03/23 04:56:12;;;;;;;19.42;9.32;;;;;;;-1.09;89.57;99694.81;5083380;28;20035;-67
2022/03/23 04:58:37;;;;;;;15.52;8.45;;;;;;;-1.16;90.27;99690.22;5084937;28;20027;-67
2022/03/23 05:01:03;;;;;;;21.35;8.52;;;;;;;-1.19;91.65;99695.25;5082845;28;20247;-67
2022/03/23 05:03:29;;;;;;;24.75;11.05;;;;;;;-1.11;92.38;99699.03;5078471;28;20035;-67
2022/03/23 05:05:54;;;;;;;22.20;9.23;;;;;;;-0.99;91.60;99709.91;5084808;28;20027;-67
2022/03/23 05:08:20;;;;;;;23.33;8.23;;;;;;;-1.04;90.72;99700.19;5072168;28;20017;-67
2022/03/23 05:10:45;;;;;;;23.88;9.20;;;;;;;-0.99;90.64;99703.84;5080655;28;20031;-67
2022/03/23 05:13:11;;;;;;;17.10;8.48;;;;;;;-1.00;90.35;99708.16;5084383;28;20024;-67
2022/03/23 05:15:37;;;;;;;20.45;9.52;;;;;;;-0.97;90.71;99708.28;5083040;28;20028;-67
2022/03/23 05:18:03;;;;;;;20.23;9.07;;;;;;;-0.91;90.46;99713.72;5084271;28;20202;-67
2022/03/23 05:20:29;;;;;;;20.77;9.88;;;;;;;-0.86;90.08;99712.19;5083649;28;20339;-67
2022/03/23 05:22:55;;;;;;;21.98;10.68;;;;;;;-0.94;89.82;99708.41;5081974;28;20020;-67
2022/03/23 05:25:21;;;;;;;30.58;11.50;;;;;;;-0.89;89.96;99712.06;5073373;28;20079;-67
2022/03/23 05:27:48;;;;;;;16.50;9.13;;;;;;;-0.86;89.79;99712.19;5068379;28;20027;-67
2022/03/23 05:30:14;;;;;;;23.15;9.70;;;;;;;-0.81;89.72;99715.84;5068827;28;20013;-67
2022/03/23 05:32:41;;;;;;;15.60;8.00;;;;;;;-0.82;89.82;99714.06;5075290;28;20017;-67
2022/03/23 05:35:09;;;;;;;32.55;11.60;;;;;;;-0.97;90.23;99713.44;5071595;28;20025;-67
2022/03/23 05:37:35;;;;;;;21.80;9.15;;;;;;;-0.91;89.78;99716.28;5076669;28;20029;-67
2022/03/23 05:40:05;;;;;;;25.08;9.38;;;;;;;-1.07;88.91;99721.63;5084661;28;20017;-67
2022/03/23 05:42:31;;;;;;;20.60;10.30;;;;;;;-1.24;90.48;99712.22;5084683;28;20020;-67
2022/03/23 05:44:56;;;;;;;27.23;9.85;;;;;;;-1.11;90.52;99724.88;5083745;28;20040;-67
2022/03/23 05:47:22;;;;;;;17.15;7.75;;;;;;;-1.07;91.41;99716.47;5084491;28;20030;-67
2022/03/23 05:49:47;;;;;;;15.00;8.57;;;;;;;-1.03;91.22;99720.94;5084441;28;20033;-67
2022/03/23 05:52:13;;;;;;;20.52;9.05;;;;;;;-1.01;91.14;99724.44;5084445;28;20027;-67
2022/03/23 05:54:39;;;;;;;20.83;8.50;;;;;;;-0.91;91.03;99729.22;5084465;28;20242;-67
2022/03/23 05:57:05;;;;;;;15.35;7.93;;;;;;;-0.78;90.27;99726.31;5084368;28;20055;-67
2022/03/23 05:59:30;;;;;;;18.83;9.48;;;;;;;-0.74;89.93;99738.56;5084282;28;20016;-67
2022/03/23 06:01:58;;;;;;;16.63;8.60;;;;;;;-0.51;89.88;99737.81;5084333;28;20028;-67
2022/03/23 06:04:23;;;;;;;18.25;9.57;;;;;;;-0.26;88.77;99740.56;5084237;28;20024;-67
2022/03/23 06:06:49;;;;;;;23.25;8.98;;;;;;;-0.12;88.45;99744.59;5084276;28;20083;-67
2022/03/23 06:09:14;;;;;;;26.33;9.68;;;;;;;0.12;87.95;99743.81;5084187;28;20020;-67
2022/03/23 06:11:40;;;;;;;17.80;9.73;;;;;;;0.38;87.41;99743.09;5084137;28;20020;-67
2022/03/23 06:14:05;;;;;;;22.98;11.25;;;;;;;0.52;86.38;99741.91;5084152;28;20328;-67
2022/03/23 06:16:31;;;;;;;33.40;10.68;;;;;;;0.77;86.82;99754.94;5083960;28;20048;-67
2022/03/23 06:18:59;;;;;;;22.58;10.02;;;;;;;1.16;85.75;99767.63;5084347;28;20021;-67
2022/03/23 06:21:24;;;;;;;22.10;9.65;;;;;;;1.63;83.35;99761.47;5084061;28;20204;-67
2022/03/23 06:23:50;;;;;;;23.15;9.73;;;;;;;2.01;81.97;99771.41;5084271;28;20020;-67
2022/03/23 06:26:15;;;;;;;23.85;10.32;;;;;;;2.42;80.05;99771.00;5084027;28;20373;-67
2022/03/23 06:28:41;;;;;;;20.55;9.95;;;;;;;2.74;79.06;99771.94;5083981;28;20020;-67
2022/03/23 06:31:06;;;;;;;19.88;10.27;;;;;;;2.98;78.31;99770.94;5083856;28;20061;-67
2022/03/23 06:33:32;;;;;;;24.35;8.98;;;;;;;3.27;77.92;99775.25;5083950;28;20024;-67
2022/03/23 06:35:57;;;;;;;16.98;8.93;;;;;;;3.57;76.75;99778.66;5083910;28;20104;-67
2022/03/23 06:38:22;;;;;;;29.83;8.75;;;;;;;3.87;75.80;99771.66;5083886;28;20079;-67
2022/03/23 06:40:48;;;;;;;23.05;9.90;;;;;;;4.22;74.88;99778.59;5083852;28;20043;-67
2022/03/23 06:43:13;;;;;;;20.33;8.25;;;;;;;4.48;73.14;99769.63;5083859;28;20035;-67
2022/03/23 06:45:40;;;;;;;15.95;8.18;;;;;;;4.96;72.22;99779.34;5083852;28;20054;-67
2022/03/23 06:48:07;;;;;;;23.83;9.20;;;;;;;5.27;71.66;99786.97;5083763;28;20287;-67
2022/03/23 06:50:33;;;;;;;22.83;8.38;;;;;;;5.30;71.37;99782.69;5083683;28;20020;-67
2022/03/23 06:52:59;;;;;;;19.13;8.07;;;;;;;5.57;70.42;99790.19;5083747;28;20063;-67
2022/03/23 06:55:24;;;;;;;19.48;8.57;;;;;;;6.00;69.31;99797.94;5083764;28;20250;-67
2022/03/23 06:57:49;;;;;;;15.15;8.05;;;;;;;6.33;68.76;99785.44;5087801;28;20020;-67
2022/03/23 07:00:15;;;;;;;13.82;7.80;;;;;;;6.63;67.08;99778.03;5087732;28;20025;-67
2022/03/23 07:02:46;;;;;;;13.85;7.30;;;;;;;6.64;67.49;99783.31;5087745;28;20346;-67
2022/03/23 07:05:13;;;;;;;18.92;7.78;;;;;;;6.58;67.39;99782.31;5087656;28;20016;-67
2022/03/23 07:09:31;;;;;;;14.93;8.02;;;;;;;7.00;66.80;99782.03;5087589;28;20024;-67
2022/03/23 07:10:25;;;;;;;11.65;7.07;;;;;;;8.07;63.53;99791.97;5087366;28;20043;-67
2022/03/23 07:12:50;;;;;;;14.27;7.15;;;;;;;8.39;62.02;99786.16;5087502;28;20043;-67
2022/03/23 07:15:16;;;;;;;16.58;8.88;;;;;;;8.52;62.21;99782.75;5087282;28;20053;-67
2022/03/23 07:17:41;;;;;;;12.18;7.10;;;;;;;8.77;62.29;99791.69;5087401;28;20212;-67
2022/03/23 07:20:07;;;;;;;12.25;6.80;;;;;;;9.55;59.95;99799.91;5087330;28;20027;-67
2022/03/23 07:22:32;;;;;;;15.23;7.70;;;;;;;9.72;58.82;99798.22;5087320;28;20035;-67
2022/03/23 07:24:59;;;;;;;11.60;6.72;;;;;;;10.17;58.63;99800.06;5087527;28;20031;-67
2022/03/23 07:27:24;;;;;;;14.30;7.68;;;;;;;10.52;58.58;99804.47;5087458;28;20021;-67
2022/03/23 07:29:50;;;;;;;13.70;7.03;;;;;;;10.34;58.27;99800.94;5087347;28;20338;-67
2022/03/23 07:32:15;;;;;;;12.77;7.50;;;;;;;10.70;57.77;99806.22;5087138;28;20089;-67
2022/03/23 07:34:41;;;;;;;14.80;8.80;;;;;;;10.91;56.32;99804.41;5087099;28;20027;-67
2022/03/23 07:37:06;;;;;;;20.85;8.90;;;;;;;11.33;55.43;99813.94;5087041;28;20024;-67
2022/03/23 07:39:31;;;;;;;17.00;9.20;;;;;;;11.54;55.90;99818.22;5086999;28;20044;-68
2022/03/23 07:41:59;;;;;;;17.85;8.98;;;;;;;11.86;55.77;99819.88;5086949;28;20043;-68
2022/03/23 07:44:24;;;;;;;18.25;9.65;;;;;;;12.23;55.63;99816.13;5087173;28;20381;-68
2022/03/23 07:46:50;;;;;;;25.73;11.00;;;;;;;12.38;53.95;99812.50;5086874;28;20024;-67
2022/03/23 07:49:16;;;;;;;27.63;12.98;;;;;;;12.22;54.19;99810.84;5086734;28;20029;-68
2022/03/23 07:51:41;;;;;;;27.15;15.63;;;;;;;12.30;54.33;99814.28;5087045;28;20091;-68
2022/03/23 07:54:08;;;;;;;22.83;12.18;;;;;;;12.14;54.52;99812.66;5086724;28;20347;-68
2022/03/23 07:56:34;;;;;;;21.55;11.07;;;;;;;13.11;53.74;99820.63;5086928;28;20020;-68
2022/03/23 07:58:59;;;;;;;19.95;10.63;;;;;;;12.13;55.22;99803.88;5086644;28;20193;-68
2022/03/23 08:01:25;;;;;;;19.98;11.63;;;;;;;12.47;55.63;99818.56;5086677;28;20320;-68
2022/03/23 08:03:51;;;;;;;18.70;10.25;;;;;;;13.50;54.22;99839.56;5086542;28;20021;-68
2022/03/23 08:06:16;;;;;;;15.50;9.07;;;;;;;14.15;53.00;99825.47;5086517;28;20069;-68
2022/03/23 08:08:42;;;;;;;21.15;11.13;;;;;;;14.83;51.65;99830.56;5085382;28;20384;-68
2022/03/23 08:11:08;;;;;;;19.10;10.80;;;;;;;15.11;51.32;99832.69;5086324;28;20013;-68
2022/03/23 08:13:34;;;;;;;17.98;9.95;;;;;;;15.25;50.59;99819.16;5086393;28;20062;-67
2022/03/23 08:16:00;;;;;;;16.67;10.52;;;;;;;15.88;49.42;99839.13;5086227;28;20037;-68
2022/03/23 08:18:27;;;;;;;19.75;10.25;;;;;;;15.84;50.12;99826.81;5086237;28;20020;-68
2022/03/23 08:20:53;;;;;;;16.02;10.35;;;;;;;16.41;48.19;99835.25;5086270;28;20320;-68
2022/03/23 08:23:19;;;;;;;19.42;11.95;;;;;;;16.64;48.30;99839.13;5086208;28;20091;-68
2022/03/23 08:25:46;;;;;;;17.17;11.48;;;;;;;16.93;47.45;99833.94;5086413;28;20121;-68
2022/03/23 08:28:14;;;;;;;21.92;11.50;;;;;;;17.15;46.40;99826.31;5086111;28;20039;-68
2022/03/23 08:30:41;;;;;;;17.63;12.43;;;;;;;16.70;47.31;99817.72;5086209;28;20088;-68
2022/03/23 08:33:07;;;;;;;19.35;12.60;;;;;;;17.54;47.02;99829.66;5086064;28;20220;-68
2022/03/23 08:35:33;;;;;;;20.65;12.52;;;;;;;17.72;45.99;99829.16;5086072;28;20016;-67
2022/03/23 08:37:59;;;;;;;24.92;14.15;;;;;;;17.22;47.26;99828.72;5085938;28;20021;-68
2022/03/23 08:40:25;;;;;;;21.45;11.93;;;;;;;18.01;46.22;99829.16;5085861;28;20051;-68
2022/03/23 08:42:50;;;;;;;20.83;12.40;;;;;;;18.54;43.82;99828.41;5085797;28;20024;-68
2022/03/23 08:45:17;;;;;;;22.65;12.52;;;;;;;18.95;42.42;99835.88;5085806;28;20131;-68
2022/03/23 08:47:43;;;;;;;21.30;12.15;;;;;;;19.20;41.79;99831.44;5085724;28;20031;-68
2022/03/23 08:50:11;;;;;;;20.90;13.18;;;;;;;19.11;42.12;99837.13;5085614;28;20020;-68
2022/03/23 08:52:37;;;;;;;25.33;13.77;;;;;;;19.14;40.75;99832.53;5085615;28;20086;-68
2022/03/23 08:55:05;;;;;;;23.00;13.20;;;;;;;19.48;41.12;99837.56;5085614;28;20083;-68
2022/03/23 08:57:31;;;;;;;29.40;14.23;;;;;;;19.27;42.48;99832.13;5085614;28;20058;-68
2022/03/23 08:59:56;;;;;;;23.08;12.38;;;;;;;19.68;40.06;99829.69;5085506;28;20024;-68
2022/03/23 09:02:22;;;;;;;25.10;14.50;;;;;;;19.43;39.96;99826.22;5084278;28;20398;-68
2022/03/23 09:04:48;;;;;;;25.35;14.68;;;;;;;19.77;39.52;99826.69;5085370;28;20024;-68
2022/03/23 09:07:13;;;;;;;23.67;13.38;;;;;;;19.97;38.26;99826.81;5085368;28;20063;-67
2022/03/23 09:09:39;;;;;;;24.55;13.75;;;;;;;20.23;38.21;99824.03;5085267;28;20024;-67
2022/03/23 09:12:05;;;;;;;22.58;13.20;;;;;;;20.32;38.35;99828.16;5085232;28;20312;-67
2022/03/23 09:14:30;;;;;;;21.65;13.30;;;;;;;20.31;38.27;99827.25;5084885;28;20116;-68
2022/03/23 09:16:56;;;;;;;23.08;14.27;;;;;;;20.35;38.43;99828.03;5085255;28;20029;-68
2022/03/23 09:19:21;;;;;;;25.67;14.38;;;;;;;20.47;39.20;99832.91;5084913;28;20028;-68
2022/03/23 09:21:47;;;;;;;22.38;13.23;;;;;;;20.68;38.75;99822.19;5085044;28;20047;-68
2022/03/23 09:24:13;;;;;;;27.65;13.60;;;;;;;20.62;38.38;99824.22;5085275;28;20051;-68
2022/03/23 09:26:41;;;;;;;21.17;12.75;;;;;;;20.85;37.57;99824.16;5085201;28;20016;-68
2022/03/23 09:29:08;;;;;;;34.00;14.75;;;;;;;21.07;39.69;99833.91;5085110;28;20052;-68
2022/03/23 09:31:35;;;;;;;34.90;14.85;;;;;;;21.46;37.21;99833.13;5085023;28;20240;-68
2022/03/23 09:34:02;;;;;;;25.67;14.45;;;;;;;21.29;37.79;99825.81;5084878;28;20237;-68
2022/03/23 09:39:15;;;;;;;24.38;13.98;;;;;;;21.55;37.75;99827.38;5084758;28;20023;-68
2022/03/23 09:41:43;;;;;;;22.42;13.27;;;;;;;21.66;35.73;99825.06;5084657;28;20040;-68
2022/03/23 09:44:09;;;;;;;23.58;13.88;;;;;;;21.53;36.73;99821.19;5084591;28;20343;-68
2022/03/23 09:46:35;;;;;;;27.60;15.00;;;;;;;21.35;35.30;99822.03;5084547;28;20088;-68
2022/03/23 09:49:01;;;;;;;27.55;15.30;;;;;;;21.53;36.71;99826.53;5084782;28;20020;-68
2022/03/23 09:51:30;;;;;;;22.92;14.85;;;;;;;22.18;35.82;99824.44;5084540;28;20323;-68
2022/03/23 09:53:57;;;;;;;28.40;16.63;;;;;;;22.08;36.20;99807.03;5084553;28;20224;-68
2022/03/23 09:56:23;;;;;;;26.58;15.23;;;;;;;21.99;37.32;99812.84;5084402;28;20039;-68
2022/03/23 09:58:48;;;;;;;27.05;16.17;;;;;;;22.35;35.64;99821.81;5084360;28;20035;-68
2022/03/23 10:01:51;;;;;;;28.42;16.70;;;;;;;22.29;34.29;99816.72;5084347;28;20017;-68
2022/03/23 10:04:20;;;;;;;28.73;15.70;;;;;;;22.49;34.23;99813.94;5050116;28;20032;-68
2022/03/23 10:07:06;;;;;;;26.05;15.60;;;;;;;22.60;33.55;99812.53;5084292;28;20036;-68
2022/03/23 10:10:09;;;;;;;26.05;13.48;;;;;;;22.64;31.65;99818.59;5084212;28;20071;-68
2022/03/23 10:12:53;;;;;;;24.05;14.43;;;;;;;22.51;28.65;99812.09;5084215;28;20028;-68
2022/03/23 10:15:55;;;;;;;23.30;14.43;;;;;;;22.36;28.48;99812.81;5084052;28;20044;-68
2022/03/23 10:18:33;;;;;;;24.55;13.90;;;;;;;22.00;31.36;99814.56;5084383;28;20017;-68
2022/03/23 10:20:58;;;;;;;23.63;13.65;;;;;;;21.85;31.29;99816.16;5084189;28;20031;-68
2022/03/23 10:23:24;;;;;;;26.63;13.32;;;;;;;21.79;30.13;99811.06;5084077;28;20029;-68
2022/03/23 10:25:50;;;;;;;33.80;17.70;;;;;;;22.02;28.36;99812.69;5084033;28;20024;-68
2022/03/23 10:28:17;;;;;;;52.70;23.27;;;;;;;21.96;29.22;99803.09;5083962;28;20029;-68
2022/03/23 10:30:44;;;;;;;22.48;13.05;;;;;;;21.19;29.64;99798.59;5083382;28;20058;-68
2022/03/23 10:33:18;;;;;;;28.17;14.35;;;;;;;21.72;30.29;99808.69;5083961;28;20028;-68
2022/03/23 10:35:44;;;;;;;22.48;13.60;;;;;;;22.03;29.85;99799.22;5084169;28;20088;-68
2022/03/23 10:38:13;;;;;;;27.02;15.45;;;;;;;21.51;31.23;99793.63;5083911;28;20051;-68
2022/03/23 10:40:39;;;;;;;30.33;14.52;;;;;;;21.38;31.97;99797.78;5083902;28;20021;-68
2022/03/23 10:43:04;;;;;;;25.48;14.27;;;;;;;21.58;31.67;99797.75;5083919;28;20048;-68
2022/03/23 10:45:32;;;;;;;23.77;13.15;;;;;;;21.43;32.77;99798.44;5083854;28;20024;-68
2022/03/23 10:48:07;;;;;;;23.10;13.75;;;;;;;21.11;31.96;99792.69;5084098;28;20308;-68
2022/03/23 10:50:33;;;;;;;23.52;13.20;;;;;;;21.81;29.34;99793.13;5083728;28;20163;-68
2022/03/23 10:53:01;;;;;;;25.42;14.15;;;;;;;21.88;30.10;99788.31;5083839;28;20031;-68
2022/03/23 10:55:29;;;;;;;25.67;14.07;;;;;;;21.06;31.10;99786.66;5083760;28;20023;-68
2022/03/23 10:58:01;;;;;;;23.67;13.25;;;;;;;21.32;31.23;99784.66;5083711;28;20020;-68
2022/03/23 11:00:35;;;;;;;23.70;13.65;;;;;;;21.42;30.52;99775.28;5083752;28;20087;-68
2022/03/23 11:03:03;;;;;;;23.00;12.07;;;;;;;21.14;30.63;99767.59;5083953;28;20252;-68
2022/03/23 11:05:29;;;;;;;24.60;13.63;;;;;;;21.55;31.24;99779.13;5083651;28;20031;-68
2022/03/23 11:08:22;;;;;;;21.40;12.68;;;;;;;21.21;31.65;99767.25;5083651;28;20224;-68
2022/03/23 11:16:26;;;;;;;26.98;14.18;;;;;;;21.48;33.48;99772.31;5083472;28;20283;-67
2022/03/23 11:19:05;;;;;;;22.13;13.55;;;;;;;21.23;32.13;99765.38;5083596;28;20028;-68
2022/03/23 11:21:30;;;;;;;24.20;12.70;;;;;;;21.51;31.42;99761.47;5083591;28;20021;-68
2022/03/23 11:23:56;;;;;;;25.90;13.00;;;;;;;21.24;29.90;99769.78;5083625;28;20062;-68
2022/03/23 11:26:22;;;;;;;20.75;11.30;;;;;;;21.13;31.19;99756.00;5083710;28;20020;-68
2022/03/23 11:28:47;;;;;;;18.38;11.45;;;;;;;21.01;32.36;99751.19;5083455;28;20215;-68
2022/03/23 11:31:17;;;;;;;17.60;10.15;;;;;;;21.09;32.28;99746.38;5083587;28;20307;-68
2022/03/23 11:33:49;;;;;;;20.15;10.20;;;;;;;21.27;29.13;99747.38;5082272;28;20066;-68
2022/03/23 11:36:17;;;;;;;16.48;10.43;;;;;;;21.46;28.31;99750.06;5083350;28;20024;-68
2022/03/23 11:38:43;;;;;;;18.42;10.05;;;;;;;21.15;29.64;99739.88;5083353;28;20024;-68
2022/03/23 11:41:10;;;;;;;23.10;11.15;;;;;;;20.96;29.80;99737.16;5083322;28;20061;-68
2022/03/23 11:43:37;;;;;;;18.63;11.40;;;;;;;20.80;30.17;99729.81;5086906;28;20366;-68